Suplee, PA

7:00 PM EDT on May 06, 2015 (GMT -0400)
West Caln Twp. | | Change Station
CLOSE
Current Station
Personal Weather Station
Location: Honey Brook, PA
Elevation: 928 ft
Nearby Weather Stations

Elev 928 ft 40.05 °N, 75.88 °W | Updated 51 minutes ago

Mostly Cloudy
Mostly Cloudy
64.4 °F
Feels Like 64.4 °F
N
0.0
Wind Variable Wind from ENE
Gusts 2.0 mph

Today
High -- | Low -- °F
--% Chance of Precip.
Yesterday
High -- | Low -- °F
Precip. -- in
5:57 AM 8:03 PM
Waning Gibbous, 92% visible
Pressure 30.21 in
Visibility 10.0 miles
Clouds Scattered Clouds 6000 ft
Dew Point 50 °F
Humidity 59%
Rainfall 0.13 in
Snow Depth Not available.
UV 1 out of 12
Pollen 6.90 out of 12
Air Quality Not available.
Flu Activity Sporadic
METAR KMQS 062235Z AUTO 00000KT 10SM SCT060 19/09 A3021 RMK AO2

More Conditions Fewer Conditions

Pressure 30.21 in
Visibility 10.0 miles
Clouds Scattered Clouds 6000 ft
Dew Point 50 °F
Humidity 59%
Rainfall 0.13 in
Snow Depth Not available.
UV 1 out of 12
Pollen 6.90 out of 12
Air Quality Not available.
Flu Activity Sporadic
METAR KMQS 062235Z AUTO 00000KT 10SM SCT060 19/09 A3021 RMK AO2

More Conditions Fewer Conditions

Nowcast | as of 5:52 PM EDT on May 6, 2015

Between now and 800 PM, scattered light rain showers will continue to affect parts of southeastern Pennsylvania. Additional rainfall should be a few hundredths of an inch.

×

10-Day Weather Forecast

Almanac

Astronomy

May. 06, 2015 Rise Set
Actual Time
Civil Twilight
Nautical Twilight
Astronomical Twilight
Moon
Length of Visible Light
Length of Day
Tomorrow will be .
, % of the Moon is Illuminated

Today's Extremes

State Highs State Lows

Community

WunderPhotos

Upload Photos

1,819,039 photos uploaded!

WunderBlogs® & News

Nearby

Air Quality

  Air Quality AQ Index Pollutant
Not available.

Snow Depth

Station Depth Elevation

Earthquake Activity

City Distance Mag. Time & Date
Minimum magnitude displayed is 2.5.

Coastal Water Temperatures

Place Temperature

Stations

Nearby Weather Stations

Station Location Temp. Windchill Dew Point Humidity Wind Precip. Elev Updated Type